Time;durP1;ratioP1;P1;durP2;ratioP2;P2;SDS_P1;SDS_P2;PMS_P1;PMS_P2;Temp;Humidity;BMP_temperature;BMP_pressure;BME280_temperature;BME280_humidity;BME280_pressure;Samples;Min_cycle;Max_cycle;Signal;HPM_P1;HPM_P2
2022/03/21 00:01:39;;;;;;;46.07;27.27;;;;;;;-1.44;52.57;94406.69;5069307;28;20247;-75
2022/03/21 00:04:04;;;;;;;36.57;23.30;;;;;;;-2.02;54.07;94430.69;5068415;28;20233;-75
2022/03/21 00:06:30;;;;;;;31.00;21.73;;;;;;;-2.41;55.48;94406.66;5068666;28;20197;-75
2022/03/21 00:08:55;;;;;;;22.33;16.97;;;;;;;-2.11;54.61;94416.31;5068487;28;20233;-75
2022/03/21 00:11:21;;;;;;;22.73;18.00;;;;;;;-1.96;54.91;94408.81;5070283;28;20190;-75
2022/03/21 00:13:49;;;;;;;24.07;19.03;;;;;;;-2.22;54.32;94398.69;5068845;28;20260;-75
2022/03/21 00:16:15;;;;;;;25.80;18.77;;;;;;;-2.35;54.88;94416.25;5069439;28;20200;-75
2022/03/21 00:18:41;;;;;;;21.63;17.67;;;;;;;-2.28;54.54;94417.22;5067951;28;20218;-75
2022/03/21 00:21:06;;;;;;;20.30;16.47;;;;;;;-2.33;54.56;94419.47;5069177;28;20204;-75
2022/03/21 00:23:33;;;;;;;26.13;19.77;;;;;;;-2.36;53.88;94403.63;5069725;28;20236;-77
2022/03/21 00:25:58;;;;;;;26.63;18.90;;;;;;;-2.24;53.51;94423.63;5051015;28;20204;-73
2022/03/21 00:28:24;;;;;;;25.83;19.53;;;;;;;-2.08;54.01;94422.84;5068293;28;20245;-74
2022/03/21 00:30:49;;;;;;;26.43;20.87;;;;;;;-2.45;54.21;94394.34;5051220;28;20178;-74
2022/03/21 00:33:15;;;;;;;27.37;19.37;;;;;;;-2.32;54.74;94415.94;5068504;28;20203;-75
2022/03/21 00:35:45;;;;;;;27.00;20.77;;;;;;;-2.39;54.79;94422.63;5068349;28;20241;-74
2022/03/21 00:38:14;;;;;;;24.83;18.60;;;;;;;-2.46;54.58;94405.53;5067248;28;20224;-74
2022/03/21 00:40:39;;;;;;;24.00;18.80;;;;;;;-2.38;53.23;94414.00;5068225;28;20193;-74
2022/03/21 00:43:07;;;;;;;20.17;18.03;;;;;;;-2.48;53.32;94400.56;5068252;28;20197;-75
2022/03/21 00:45:32;;;;;;;22.87;18.33;;;;;;;-2.50;53.71;94397.38;5067582;28;20185;-75
2022/03/21 00:47:58;;;;;;;27.03;20.07;;;;;;;-2.42;53.49;94399.13;5069442;28;20227;-74
2022/03/21 00:50:24;;;;;;;28.00;21.07;;;;;;;-2.49;53.27;94382.84;5053845;28;20221;-75
2022/03/21 00:52:55;;;;;;;21.17;18.13;;;;;;;-2.31;52.35;94407.31;5054298;28;20189;-74
2022/03/21 00:55:22;;;;;;;23.93;19.03;;;;;;;-2.26;52.81;94406.84;5054155;28;20231;-74
2022/03/21 00:57:48;;;;;;;25.97;17.70;;;;;;;-2.28;53.49;94401.09;5071991;28;20213;-74
2022/03/21 01:00:16;;;;;;;23.77;18.33;;;;;;;-2.25;53.08;94406.69;5071295;28;20796;-75
2022/03/21 01:02:42;;;;;;;24.73;19.23;;;;;;;-2.33;53.01;94391.31;5054834;28;20186;-74
2022/03/21 01:05:09;;;;;;;26.07;19.30;;;;;;;-2.21;52.58;94405.41;5071275;28;20236;-75
2022/03/21 01:07:36;;;;;;;24.20;19.50;;;;;;;-2.09;52.53;94399.03;5070912;28;20188;-75
2022/03/21 01:10:04;;;;;;;23.90;17.50;;;;;;;-2.28;54.71;94399.34;5053281;28;20225;-74
2022/03/21 01:12:30;;;;;;;25.67;19.60;;;;;;;-2.38;53.67;94373.09;5071673;28;20192;-74
2022/03/21 01:14:56;;;;;;;19.83;16.17;;;;;;;-2.27;53.28;94382.22;5071229;28;20217;-74
2022/03/21 01:17:21;;;;;;;24.97;17.33;;;;;;;-2.31;53.55;94376.63;5071198;28;20229;-75
2022/03/21 01:19:47;;;;;;;19.30;16.20;;;;;;;-2.18;53.52;94366.72;5070964;28;20235;-75
2022/03/21 01:22:13;;;;;;;24.43;16.20;;;;;;;-2.07;53.93;94363.84;5071513;28;20178;-74
2022/03/21 01:24:39;;;;;;;21.87;17.17;;;;;;;-2.07;51.87;94379.19;5071024;28;20229;-75
2022/03/21 01:27:05;;;;;;;22.20;17.20;;;;;;;-1.93;52.82;94368.31;5053697;28;20208;-74
2022/03/21 01:29:31;;;;;;;20.37;16.30;;;;;;;-1.87;51.92;94367.69;5070982;28;20263;-74
2022/03/21 01:31:57;;;;;;;18.30;15.83;;;;;;;-1.89;51.79;94358.56;5054550;28;20197;-74
2022/03/21 01:34:22;;;;;;;19.67;17.13;;;;;;;-1.60;50.29;94368.31;5052987;28;20225;-75
2022/03/21 01:36:48;;;;;;;18.60;16.70;;;;;;;-1.67;50.32;94351.03;5071073;28;20257;-74
2022/03/21 01:39:13;;;;;;;18.63;16.73;;;;;;;-1.60;50.41;94365.75;5070152;28;20232;-74
2022/03/21 01:41:39;;;;;;;21.90;18.03;;;;;;;-1.46;50.64;94371.00;5071066;28;20177;-75
2022/03/21 01:44:08;;;;;;;36.47;23.57;;;;;;;-1.37;50.68;94348.75;5070614;28;20229;-75
2022/03/21 01:46:36;;;;;;;35.50;24.23;;;;;;;-1.39;50.23;94348.91;5071006;28;20189;-75
2022/03/21 01:49:05;;;;;;;20.87;17.27;;;;;;;-1.38;51.19;94365.06;5052869;28;20230;-75
2022/03/21 01:51:31;;;;;;;22.27;17.40;;;;;;;-1.39;51.24;94348.09;5071139;28;20188;-75
2022/03/21 01:56:44;;;;;;;17.53;15.70;;;;;;;-1.43;51.76;94352.75;5070616;28;20196;-74
2022/03/21 01:59:10;;;;;;;22.57;18.07;;;;;;;-1.44;52.50;94346.03;5070043;28;20256;-75
2022/03/21 02:01:36;;;;;;;23.50;20.13;;;;;;;-1.28;51.87;94355.44;5052404;28;20204;-75
2022/03/21 02:04:02;;;;;;;17.50;15.73;;;;;;;-1.09;51.72;94355.06;5052705;28;20233;-75
2022/03/21 02:06:28;;;;;;;22.67;17.20;;;;;;;-1.12;52.04;94356.19;5069745;28;20212;-75
2022/03/21 02:08:58;;;;;;;17.93;15.17;;;;;;;-1.70;52.47;94336.00;5070408;28;20240;-75
2022/03/21 02:11:28;;;;;;;18.00;16.13;;;;;;;-1.87;53.19;94336.97;5070857;28;20217;-75
2022/03/21 02:13:55;;;;;;;18.93;17.03;;;;;;;-1.96;53.80;94337.94;5068458;28;20229;-75
2022/03/21 02:16:22;;;;;;;18.50;16.60;;;;;;;-1.79;53.78;94354.09;5070354;28;20189;-75
2022/03/21 02:18:48;;;;;;;19.33;17.10;;;;;;;-1.61;53.61;94357.28;5043904;28;20229;-75
2022/03/21 02:21:27;;;;;;;18.07;16.17;;;;;;;-1.76;53.75;94330.75;5070486;28;20200;-74
2022/03/21 02:23:59;;;;;;;17.57;15.77;;;;;;;-1.89;53.48;94336.34;5052152;28;20224;-75
2022/03/21 02:26:25;;;;;;;19.97;18.10;;;;;;;-1.91;52.46;94324.66;5069613;28;20193;-75
2022/03/21 02:28:52;;;;;;;20.60;16.03;;;;;;;-1.75;53.89;94356.19;5069822;28;20225;-75
2022/03/21 02:31:19;;;;;;;18.73;16.63;;;;;;;-1.77;53.40;94347.84;5070365;28;20244;-75
2022/03/21 02:33:46;;;;;;;19.00;16.70;;;;;;;-1.72;52.86;94349.94;5069296;28;20233;-75
2022/03/21 02:36:15;;;;;;;18.30;16.40;;;;;;;-1.79;52.99;94334.41;5070082;28;20270;-75
2022/03/21 02:38:41;;;;;;;19.80;16.47;;;;;;;-1.97;53.17;94333.00;5044626;28;20218;-75
2022/03/21 02:41:07;;;;;;;18.90;15.50;;;;;;;-1.76;53.51;94352.00;5052859;28;20223;-75
2022/03/21 02:43:54;;;;;;;20.00;16.00;;;;;;;-2.00;52.34;94307.72;5069529;28;20221;-75
2022/03/21 02:46:21;;;;;;;17.63;15.53;;;;;;;-1.76;51.81;94357.13;5070126;28;20197;-75
2022/03/21 02:48:51;;;;;;;18.07;16.20;;;;;;;-1.89;52.68;94336.34;5051903;28;20232;-75
2022/03/21 02:51:22;;;;;;;21.40;17.53;;;;;;;-1.59;52.12;94357.13;5069076;28;20221;-75
2022/03/21 02:53:51;;;;;;;19.07;16.20;;;;;;;-1.35;52.74;94365.53;5069406;28;20382;-75
2022/03/21 02:56:22;;;;;;;17.53;15.67;;;;;;;-1.19;51.93;94380.88;5069829;28;20243;-75
2022/03/21 02:58:49;;;;;;;18.17;15.73;;;;;;;-1.54;50.34;94370.22;5068860;28;20233;-75
2022/03/21 03:01:17;;;;;;;18.87;16.37;;;;;;;-1.40;51.95;94372.13;5051796;28;20253;-75
2022/03/21 03:03:43;;;;;;;20.50;16.17;;;;;;;-1.37;51.25;94380.25;5068081;28;20237;-75
2022/03/21 03:06:09;;;;;;;19.10;17.03;;;;;;;-1.78;53.16;94383.84;5069379;28;20217;-75
2022/03/21 03:08:37;;;;;;;20.87;17.53;;;;;;;-1.91;53.72;94380.97;5068649;28;20306;-76
2022/03/21 03:11:02;;;;;;;18.47;14.90;;;;;;;-1.98;53.85;94377.47;5069984;28;20195;-75
2022/03/21 03:13:28;;;;;;;20.60;16.63;;;;;;;-1.93;53.33;94367.56;5068885;28;20320;-75
2022/03/21 03:15:53;;;;;;;20.40;17.17;;;;;;;-1.68;48.57;94356.31;5068718;28;20283;-75
2022/03/21 03:18:19;;;;;;;20.03;17.87;;;;;;;-1.70;52.22;94382.06;5068601;28;20252;-75
2022/03/21 03:20:49;;;;;;;22.73;16.93;;;;;;;-1.70;51.84;94389.75;5069786;28;20950;-76
2022/03/21 03:23:15;;;;;;;20.60;16.90;;;;;;;-1.62;50.25;94374.38;5067826;28;20364;-74
2022/03/21 03:25:40;;;;;;;19.47;17.43;;;;;;;-1.67;50.07;94366.38;5069079;28;20249;-75
2022/03/21 03:28:06;;;;;;;19.67;15.63;;;;;;;-1.71;52.04;94385.59;5069286;28;20204;-76
2022/03/21 03:30:34;;;;;;;19.60;16.90;;;;;;;-1.97;53.33;94373.94;5069148;28;20201;-75
2022/03/21 03:32:59;;;;;;;20.90;16.97;;;;;;;-1.97;53.01;94374.75;5069680;28;20201;-75
2022/03/21 03:35:25;;;;;;;22.93;16.60;;;;;;;-1.85;53.34;94377.75;5068903;28;20251;-75
2022/03/21 03:37:50;;;;;;;17.63;15.77;;;;;;;-2.05;53.50;94374.72;5069313;28;20216;-75
2022/03/21 03:40:17;;;;;;;22.07;17.30;;;;;;;-2.13;53.66;94369.59;5069099;28;20229;-75
2022/03/21 03:42:43;;;;;;;19.43;16.67;;;;;;;-1.98;53.38;94382.56;5069314;28;20173;-75
2022/03/21 03:45:09;;;;;;;18.93;16.73;;;;;;;-2.03;53.62;94379.69;5068866;28;20229;-75
2022/03/21 03:47:34;;;;;;;19.27;17.37;;;;;;;-1.91;53.12;94363.84;5069335;28;20181;-76
2022/03/21 03:49:59;;;;;;;20.63;17.80;;;;;;;-1.97;53.16;94372.19;5068281;28;20236;-76
2022/03/21 03:52:25;;;;;;;20.80;17.57;;;;;;;-1.83;52.95;94378.41;5069306;28;20196;-75
2022/03/21 03:54:50;;;;;;;22.87;17.47;;;;;;;-1.95;52.70;94380.50;5068535;28;20237;-75
2022/03/21 03:57:16;;;;;;;19.60;16.57;;;;;;;-2.00;51.77;94362.28;5051504;28;20225;-76
2022/03/21 03:59:41;;;;;;;20.20;16.20;;;;;;;-1.99;53.49;94370.72;5051181;28;20229;-76
2022/03/21 04:02:09;;;;;;;20.03;17.23;;;;;;;-2.28;55.13;94378.88;5068337;28;20193;-76
2022/03/21 04:04:35;;;;;;;18.93;16.90;;;;;;;-2.18;55.05;94322.47;5068183;28;20233;-76
2022/03/21 04:07:00;;;;;;;18.57;16.10;;;;;;;-2.17;55.02;94367.53;5069479;28;20190;-76
2022/03/21 04:09:26;;;;;;;20.83;16.73;;;;;;;-2.31;53.71;94366.41;5068550;28;20229;-76
2022/03/21 04:11:51;;;;;;;19.87;17.77;;;;;;;-2.34;53.13;94348.81;5051632;28;20201;-76
2022/03/21 04:14:17;;;;;;;24.00;19.03;;;;;;;-2.21;54.73;94358.59;5068502;28;20226;-76
2022/03/21 04:16:44;;;;;;;19.97;17.20;;;;;;;-2.29;53.71;94359.34;5068941;28;20212;-75
2022/03/21 04:19:11;;;;;;;20.10;17.47;;;;;;;-2.39;53.11;94355.34;5067461;28;20264;-76
2022/03/21 04:21:36;;;;;;;19.07;16.70;;;;;;;-2.26;51.65;94353.13;5067660;28;20284;-76
2022/03/21 04:24:02;;;;;;;18.87;17.07;;;;;;;-2.24;50.10;94344.34;5072036;28;20256;-76
2022/03/21 04:26:27;;;;;;;18.30;16.37;;;;;;;-2.06;49.95;94355.22;5072695;28;20181;-76
2022/03/21 04:28:55;;;;;;;19.27;16.80;;;;;;;-2.21;50.36;94320.22;5072065;28;20233;-76
2022/03/21 04:31:20;;;;;;;18.53;16.70;;;;;;;-2.12;51.25;94360.97;5070793;28;20192;-76
2022/03/21 04:33:46;;;;;;;21.73;16.73;;;;;;;-2.17;51.52;94360.66;5071489;28;20213;-75
2022/03/21 04:36:13;;;;;;;19.37;16.30;;;;;;;-2.21;51.32;94341.47;5072300;28;20189;-75
2022/03/21 04:38:38;;;;;;;23.00;17.10;;;;;;;-2.08;50.35;94364.81;5072271;28;20267;-75
2022/03/21 04:41:04;;;;;;;18.60;16.83;;;;;;;-2.06;49.96;94355.22;5054309;28;20261;-76
2022/03/21 04:43:29;;;;;;;18.27;16.23;;;;;;;-1.97;51.25;94364.50;5072424;28;20731;-79
2022/03/21 04:45:55;;;;;;;18.77;16.07;;;;;;;-2.10;49.93;94343.69;5071326;28;20189;-76
2022/03/21 04:48:20;;;;;;;18.23;15.60;;;;;;;-1.90;48.94;94369.78;5071999;28;20227;-74
2022/03/21 04:50:46;;;;;;;18.70;16.50;;;;;;;-1.87;49.99;94339.53;5058713;28;20227;-75
2022/03/21 04:53:11;;;;;;;17.43;15.83;;;;;;;-1.87;48.72;94331.84;5053646;28;20656;-76
2022/03/21 04:55:41;;;;;;;17.93;16.13;;;;;;;-1.43;48.11;94369.91;5072073;28;20930;-75
2022/03/21 04:58:07;;;;;;;30.27;17.37;;;;;;;-1.89;49.69;94341.47;5053988;28;20772;-75
2022/03/21 05:00:33;;;;;;;20.10;17.93;;;;;;;-1.78;51.05;94378.72;5073326;28;21212;-75
2022/03/21 05:02:59;;;;;;;20.00;18.00;;;;;;;-1.67;51.29;94360.47;5076508;28;20180;-79
2022/03/21 05:05:25;;;;;;;18.53;16.63;;;;;;;-1.30;51.54;94370.16;5053653;28;20286;-76
2022/03/21 05:07:54;;;;;;;17.60;15.80;;;;;;;-1.26;50.14;94379.16;5072209;28;20185;-74
2022/03/21 05:10:24;;;;;;;18.90;15.40;;;;;;;-1.56;49.31;94331.19;5071021;28;20260;-80
2022/03/21 05:12:50;;;;;;;19.33;15.37;;;;;;;-1.29;47.86;94356.41;5070033;28;20216;-79
2022/03/21 05:15:17;;;;;;;19.37;16.43;;;;;;;-1.38;49.57;94354.81;5068954;28;20217;-77
2022/03/21 05:17:43;;;;;;;18.93;16.30;;;;;;;-1.04;49.19;94370.75;5069838;28;20241;-75
2022/03/21 05:20:15;;;;;;;19.60;17.00;;;;;;;-1.00;49.09;94369.44;5071031;28;20263;-78
2022/03/21 05:22:40;;;;;;;18.60;16.70;;;;;;;-0.66;47.46;94362.25;5070522;28;20193;-79
2022/03/21 05:36:04;;;;;;;16.77;15.27;;;;;;;-0.39;45.54;94374.63;5070854;28;20253;-76
2022/03/21 05:38:30;;;;;;;21.60;16.63;;;;;;;-0.13;45.49;94395.63;5070303;28;20221;-76
2022/03/21 05:41:01;;;;;;;21.97;16.77;;;;;;;0.08;45.10;94388.09;5070481;28;21144;-76
2022/03/21 05:43:27;;;;;;;21.33;16.73;;;;;;;0.19;45.58;94397.97;5069809;28;20335;-76
2022/03/21 05:45:53;;;;;;;22.47;19.07;;;;;;;0.02;46.00;94388.00;5070010;28;20231;-76
2022/03/21 05:51:05;;;;;;;29.77;16.57;;;;;;;0.33;44.95;94399.78;5070993;28;20184;-76
2022/03/21 05:53:30;;;;;;;20.07;15.87;;;;;;;0.43;44.00;94384.94;5070554;28;20225;-76
2022/03/21 05:55:58;;;;;;;20.60;15.50;;;;;;;0.58;44.74;94387.53;5070759;28;20197;-76
2022/03/21 05:58:24;;;;;;;17.43;15.73;;;;;;;0.83;42.44;94399.97;5070225;28;20281;-77
2022/03/21 06:00:49;;;;;;;18.33;15.17;;;;;;;0.81;42.08;94396.78;5071320;28;20193;-77
2022/03/21 06:03:15;;;;;;;22.37;16.53;;;;;;;0.74;42.85;94372.75;5070442;28;20189;-76
2022/03/21 06:05:40;;;;;;;19.07;17.07;;;;;;;0.90;43.56;94387.22;5070812;28;20215;-76
2022/03/21 06:08:07;;;;;;;17.20;14.73;;;;;;;0.88;43.82;94391.72;5070488;28;20185;-76
2022/03/21 06:10:32;;;;;;;18.53;15.57;;;;;;;0.95;42.74;94392.66;5070888;28;20212;-77
2022/03/21 06:12:58;;;;;;;17.83;15.93;;;;;;;0.81;43.48;94396.78;5070599;28;20193;-77
2022/03/21 06:15:23;;;;;;;16.03;14.33;;;;;;;0.79;43.21;94378.19;5069988;28;20726;-77
2022/03/21 06:17:49;;;;;;;17.20;15.40;;;;;;;1.01;42.85;94389.34;5070503;28;20709;-77
2022/03/21 06:20:16;;;;;;;16.37;14.83;;;;;;;0.91;41.75;94392.19;5069830;28;20229;-77
2022/03/21 06:22:43;;;;;;;19.20;15.17;;;;;;;0.95;41.88;94408.84;5070146;28;20238;-77
2022/03/21 06:25:10;;;;;;;16.13;14.53;;;;;;;0.95;41.94;94406.28;5068558;28;20271;-76
2022/03/21 06:27:37;;;;;;;16.97;15.43;;;;;;;1.08;41.68;94403.09;5070165;28;20201;-77
2022/03/21 06:30:05;;;;;;;15.97;14.37;;;;;;;0.91;43.80;94379.34;5069536;28;20220;-77
2022/03/21 06:32:30;;;;;;;17.63;16.13;;;;;;;1.20;41.81;94392.19;5070733;28;20218;-77
2022/03/21 06:34:56;;;;;;;17.63;15.83;;;;;;;1.60;39.53;94403.78;5069824;28;20283;-76
2022/03/21 06:37:21;;;;;;;17.67;14.43;;;;;;;1.27;40.82;94387.94;5069838;28;20221;-78
2022/03/21 06:39:47;;;;;;;17.70;16.00;;;;;;;1.40;40.24;94392.47;5053757;28;20221;-77
2022/03/21 06:42:14;;;;;;;16.63;14.93;;;;;;;1.43;41.55;94392.09;5068701;28;20201;-77
2022/03/21 06:44:41;;;;;;;22.53;16.00;;;;;;;1.05;42.25;94368.25;5069429;28;20240;-77
2022/03/21 06:47:07;;;;;;;17.17;15.33;;;;;;;1.74;40.92;94394.44;5051104;28;20220;-82
2022/03/21 06:49:32;;;;;;;17.87;16.03;;;;;;;1.28;41.37;94381.81;5068923;28;20221;-81
2022/03/21 06:52:02;;;;;;;16.83;15.20;;;;;;;1.31;39.79;94357.50;5069963;28;20257;-79
2022/03/21 06:54:29;;;;;;;17.07;15.43;;;;;;;1.12;42.43;94389.69;5069337;28;20225;-81
2022/03/21 06:56:55;;;;;;;18.93;16.43;;;;;;;0.89;41.74;94395.88;5069879;28;20194;-81
2022/03/21 06:59:20;;;;;;;17.27;14.80;;;;;;;0.91;41.88;94386.25;5050578;28;20264;-80
2022/03/21 07:01:46;;;;;;;16.90;14.67;;;;;;;1.33;40.66;94396.69;5069139;28;20192;-79
2022/03/21 07:04:11;;;;;;;18.03;16.03;;;;;;;1.85;39.63;94373.34;5050587;28;20232;-80
2022/03/21 07:06:37;;;;;;;16.70;15.10;;;;;;;2.13;39.96;94392.28;5066868;28;20229;-78
2022/03/21 07:09:02;;;;;;;17.67;15.77;;;;;;;2.22;39.42;94389.38;5067636;28;20288;-79
2022/03/21 07:11:29;;;;;;;21.30;16.00;;;;;;;2.95;39.09;94407.03;5065250;28;20262;-82
2022/03/21 07:13:55;;;;;;;23.27;16.20;;;;;;;3.18;39.04;94387.72;5068396;28;20343;-78
2022/03/21 07:16:20;;;;;;;23.00;16.03;;;;;;;3.02;38.40;94389.78;5068274;28;20201;-75
2022/03/21 07:18:47;;;;;;;20.13;17.13;;;;;;;3.18;37.46;94380.00;5050327;28;20259;-76
2022/03/21 07:21:14;;;;;;;21.57;15.63;;;;;;;2.98;39.26;94383.44;5067210;28;20192;-77
2022/03/21 07:23:40;;;;;;;19.50;16.60;;;;;;;2.79;38.94;94360.88;5067265;28;20237;-77
2022/03/21 07:26:05;;;;;;;20.07;15.07;;;;;;;3.21;38.46;94386.53;5069199;28;20197;-78
2022/03/21 07:28:31;;;;;;;19.50;17.43;;;;;;;3.00;38.57;94366.00;5051320;28;20244;-79
2022/03/21 07:30:57;;;;;;;17.93;16.13;;;;;;;3.28;37.50;94377.06;5069128;28;20220;-78
2022/03/21 07:33:24;;;;;;;17.07;15.47;;;;;;;3.20;38.39;94379.81;5068700;28;20189;-79
2022/03/21 07:35:50;;;;;;;23.53;17.37;;;;;;;3.23;39.14;94382.00;5068674;28;20189;-78
2022/03/21 07:38:18;;;;;;;19.63;17.43;;;;;;;2.88;39.40;94380.41;5068489;28;20219;-79
2022/03/21 07:40:46;;;;;;;18.63;16.67;;;;;;;3.33;37.57;94379.88;5050483;28;20256;-78
2022/03/21 07:43:12;;;;;;;19.07;16.93;;;;;;;3.46;37.72;94369.59;5050846;28;20185;-78
2022/03/21 07:48:23;;;;;;;22.93;17.33;;;;;;;3.23;38.72;94366.50;5067897;28;20284;-75
2022/03/21 07:50:49;;;;;;;17.53;15.70;;;;;;;3.63;37.24;94370.09;5069040;28;20220;-75
2022/03/21 07:53:14;;;;;;;19.60;17.37;;;;;;;3.49;37.69;94343.41;5050364;28;20197;-75
2022/03/21 07:55:40;;;;;;;18.63;16.53;;;;;;;3.61;37.14;94365.09;5069046;28;20236;-74
2022/03/21 07:58:05;;;;;;;18.40;16.37;;;;;;;3.41;36.32;94355.69;5071073;28;20228;-76
2022/03/21 08:00:31;;;;;;;18.33;16.43;;;;;;;3.37;37.63;94354.47;5073459;28;20186;-74
2022/03/21 08:02:58;;;;;;;22.50;16.43;;;;;;;3.42;37.48;94358.06;5073163;28;20198;-75
2022/03/21 08:05:24;;;;;;;19.20;17.23;;;;;;;3.75;36.79;94353.81;5072144;28;20229;-74
2022/03/21 08:07:51;;;;;;;19.00;17.00;;;;;;;3.47;35.88;94337.63;5055108;28;20180;-75
2022/03/21 08:10:18;;;;;;;17.27;15.67;;;;;;;3.60;37.21;94332.50;5053247;28;20225;-76
2022/03/21 08:12:46;;;;;;;17.83;16.10;;;;;;;4.02;35.71;94347.72;5072704;28;20182;-76
2022/03/21 08:15:12;;;;;;;18.77;16.43;;;;;;;4.07;36.56;94345.34;5072013;28;20250;-78
2022/03/21 08:17:51;;;;;;;20.23;17.30;;;;;;;4.11;36.22;94343.97;5072194;28;20240;-76
2022/03/21 08:20:23;;;;;;;18.70;16.80;;;;;;;3.83;36.28;94335.56;5071978;28;20273;-77
2022/03/21 08:22:50;;;;;;;20.77;16.90;;;;;;;3.84;36.64;94351.88;5072344;28;20219;-77
2022/03/21 08:25:17;;;;;;;20.07;16.90;;;;;;;4.03;36.49;94349.31;5070995;28;20224;-77
2022/03/21 08:27:44;;;;;;;18.00;16.10;;;;;;;4.03;35.60;94333.81;5073017;28;20221;-78
2022/03/21 08:30:15;;;;;;;20.10;17.73;;;;;;;3.94;36.44;94350.50;5071974;28;20942;-77
2022/03/21 08:32:45;;;;;;;18.17;16.27;;;;;;;3.55;37.04;94329.72;5072878;28;20197;-77
2022/03/21 08:35:11;;;;;;;19.97;17.70;;;;;;;3.78;36.69;94347.47;5071154;28;20221;-78
2022/03/21 08:37:36;;;;;;;21.43;17.90;;;;;;;4.19;37.13;94346.38;5072688;28;20224;-78
2022/03/21 08:40:03;;;;;;;22.83;18.07;;;;;;;3.95;37.65;94320.28;5071473;28;20229;-75
2022/03/21 08:42:29;;;;;;;21.97;18.33;;;;;;;4.24;36.20;94359.50;5072260;28;20184;-79
2022/03/21 08:44:55;;;;;;;20.57;17.07;;;;;;;3.99;36.29;94336.97;5071142;28;20245;-77
2022/03/21 08:47:21;;;;;;;20.23;18.10;;;;;;;3.22;38.77;94328.81;5072640;28;20220;-77
2022/03/21 08:49:46;;;;;;;21.60;19.17;;;;;;;3.46;37.55;94335.22;5071670;28;20214;-79
2022/03/21 08:52:13;;;;;;;26.30;16.20;;;;;;;3.58;37.39;94331.13;5072052;28;20197;-77
2022/03/21 08:54:39;;;;;;;20.77;18.67;;;;;;;3.88;37.64;94333.19;5070267;28;20285;-77
2022/03/21 08:57:05;;;;;;;18.07;15.87;;;;;;;4.36;37.08;94334.66;5053958;28;20189;-79
2022/03/21 08:59:31;;;;;;;19.43;17.00;;;;;;;4.76;36.82;94323.28;5071594;28;20210;-80
2022/03/21 09:01:56;;;;;;;22.07;18.00;;;;;;;5.10;35.54;94334.38;5072568;28;20224;-81
2022/03/21 09:04:22;;;;;;;28.17;19.10;;;;;;;4.95;35.01;94330.22;5053135;28;20260;-80
2022/03/21 09:06:48;;;;;;;21.20;18.97;;;;;;;4.90;36.38;94330.03;5053656;28;20200;-78
2022/03/21 09:09:15;;;;;;;21.27;17.63;;;;;;;4.96;37.89;94331.81;5069244;28;20350;-78
2022/03/21 09:11:41;;;;;;;22.73;17.53;;;;;;;5.01;37.78;94310.53;5053978;28;20694;-75
2022/03/21 09:14:09;;;;;;;21.83;18.67;;;;;;;5.29;35.20;94324.00;5071412;28;20315;-77
2022/03/21 09:16:39;;;;;;;20.33;18.17;;;;;;;5.31;35.00;94332.31;5053329;28;20189;-79
2022/03/21 09:19:05;;;;;;;20.80;18.37;;;;;;;5.65;35.09;94341.59;5049141;28;20621;-80
2022/03/21 09:21:31;;;;;;;21.70;17.80;;;;;;;5.79;34.04;94330.94;5049691;28;20182;-81
2022/03/21 09:23:57;;;;;;;25.47;19.00;;;;;;;5.62;35.17;94342.00;5049673;28;20230;-81
2022/03/21 09:26:22;;;;;;;22.50;18.57;;;;;;;5.42;35.74;94323.13;5046269;28;20182;-79
2022/03/21 09:28:49;;;;;;;20.40;18.40;;;;;;;5.34;35.39;94334.50;5047934;28;20339;-81
2022/03/21 09:31:16;;;;;;;18.93;17.03;;;;;;;5.23;35.50;94329.19;5050986;28;20213;-81
2022/03/21 09:33:42;;;;;;;23.53;17.50;;;;;;;5.04;36.18;94324.84;5050175;28;20238;-80
2022/03/21 09:36:09;;;;;;;19.63;17.63;;;;;;;4.60;35.95;94336.66;5052108;28;20173;-80
2022/03/21 09:38:36;;;;;;;18.47;16.27;;;;;;;3.80;36.93;94310.13;5048940;28;20333;-78
2022/03/21 09:41:03;;;;;;;18.67;16.77;;;;;;;3.96;36.61;94314.13;5049661;28;20186;-79
2022/03/21 09:43:30;;;;;;;18.37;15.23;;;;;;;3.78;36.78;94317.28;5047514;28;20233;-81
2022/03/21 09:46:00;;;;;;;24.37;16.63;;;;;;;3.59;38.06;94297.38;5050510;28;20216;-80
2022/03/21 09:48:27;;;;;;;19.47;17.70;;;;;;;3.73;37.69;94329.97;5048976;28;20230;-80
2022/03/21 09:50:54;;;;;;;17.77;15.83;;;;;;;3.72;36.79;94328.38;5050470;28;20241;-79
2022/03/21 09:53:21;;;;;;;20.53;15.93;;;;;;;3.61;37.67;94320.41;5050586;28;20186;-78
2022/03/21 09:55:47;;;;;;;18.63;16.50;;;;;;;3.63;38.36;94303.72;5050907;28;20801;-76
2022/03/21 09:58:13;;;;;;;19.70;16.57;;;;;;;3.91;38.44;94316.50;5050495;28;20218;-79
2022/03/21 10:00:43;;;;;;;16.70;14.97;;;;;;;4.32;36.82;94312.78;5050969;28;20193;-79
2022/03/21 10:03:09;;;;;;;17.87;16.17;;;;;;;4.23;36.19;94324.31;5050656;28;20202;-79
2022/03/21 10:05:41;;;;;;;18.10;16.43;;;;;;;4.10;36.33;94290.69;5050598;28;20220;-78
2022/03/21 10:08:18;;;;;;;20.40;16.63;;;;;;;4.34;36.34;94318.53;5040044;28;20233;-79
2022/03/21 10:10:51;;;;;;;19.30;16.97;;;;;;;4.22;36.24;94320.13;5050913;28;20190;-79
2022/03/21 10:13:18;;;;;;;19.17;17.17;;;;;;;3.84;36.54;94295.03;5045867;28;21129;-77
2022/03/21 10:15:44;;;;;;;20.83;17.80;;;;;;;3.84;37.41;94308.75;5048924;28;20253;-79
2022/03/21 10:18:11;;;;;;;18.50;16.40;;;;;;;3.99;37.07;94304.19;5060828;28;20236;-78
2022/03/21 10:20:38;;;;;;;20.47;16.60;;;;;;;4.00;37.84;94284.34;5068555;28;20174;-79
2022/03/21 10:23:23;;;;;;;16.57;14.97;;;;;;;3.93;36.76;94279.16;5069716;28;20197;-76
2022/03/21 10:25:52;;;;;;;18.63;16.63;;;;;;;3.81;36.70;94298.00;5069892;28;20197;-79
2022/03/21 10:28:33;;;;;;;21.03;15.73;;;;;;;3.76;36.90;94290.84;5068559;28;20190;-74
2022/03/21 10:31:01;;;;;;;21.00;17.43;;;;;;;3.80;37.41;94286.88;5068910;28;20194;-76
2022/03/21 10:33:26;;;;;;;19.30;15.57;;;;;;;3.96;36.36;94289.09;5051377;28;20233;-76
2022/03/21 10:35:52;;;;;;;19.00;16.47;;;;;;;4.19;36.17;94284.34;5068211;28;20173;-77
2022/03/21 10:38:32;;;;;;;17.40;15.87;;;;;;;4.42;36.81;94292.47;5067576;28;20217;-76
2022/03/21 10:41:05;;;;;;;18.50;16.20;;;;;;;4.45;35.79;94299.84;5067788;28;20196;-75
2022/03/21 10:43:30;;;;;;;20.57;17.63;;;;;;;4.44;36.61;94281.94;5068301;28;20236;-75
2022/03/21 10:45:57;;;;;;;19.10;17.27;;;;;;;4.50;37.65;94287.09;5069327;28;20189;-75
2022/03/21 10:48:32;;;;;;;18.53;16.60;;;;;;;4.31;36.78;94277.56;5068751;28;21168;-75
2022/03/21 10:51:03;;;;;;;17.03;15.27;;;;;;;4.38;36.09;94283.53;5068823;28;20197;-74
2022/03/21 10:53:38;;;;;;;19.77;17.83;;;;;;;4.30;36.64;94286.31;5067536;28;20250;-74
2022/03/21 10:56:09;;;;;;;18.77;17.07;;;;;;;4.38;36.43;94272.41;5068593;28;20234;-74
2022/03/21 10:58:47;;;;;;;20.77;16.23;;;;;;;4.63;36.09;94281.94;5068303;28;20233;-75
2022/03/21 11:01:25;;;;;;;17.40;15.63;;;;;;;4.74;34.78;94270.16;5050948;28;20201;-75
2022/03/21 11:03:56;;;;;;;17.83;15.73;;;;;;;4.79;35.47;94271.13;5067816;28;20256;-75
2022/03/21 11:06:22;;;;;;;18.50;16.47;;;;;;;4.58;36.38;94253.28;5066000;28;20189;-75
2022/03/21 11:08:51;;;;;;;18.50;16.23;;;;;;;4.62;36.22;94236.34;5067845;28;20238;-75
2022/03/21 11:11:17;;;;;;;18.87;17.07;;;;;;;4.66;36.79;94260.84;5068139;28;20197;-74
2022/03/21 11:13:43;;;;;;;19.13;17.23;;;;;;;4.61;36.26;94265.00;5050305;28;20241;-74
2022/03/21 11:16:09;;;;;;;17.93;16.13;;;;;;;4.64;35.36;94249.88;5068325;28;20248;-74
2022/03/21 11:18:35;;;;;;;19.07;17.17;;;;;;;4.67;36.55;94241.72;5066576;28;20248;-74
2022/03/21 11:21:01;;;;;;;18.20;16.40;;;;;;;4.59;36.97;94259.25;5068568;28;20249;-76
2022/03/21 11:23:26;;;;;;;20.60;17.43;;;;;;;4.50;36.59;94248.31;5066923;28;20226;-75
2022/03/21 11:26:01;;;;;;;16.87;15.17;;;;;;;4.34;35.77;94250.53;5067926;28;20289;-76
2022/03/21 11:29:10;;;;;;;20.87;18.20;;;;;;;4.49;36.58;94256.28;5067803;28;20233;-75
2022/03/21 11:31:56;;;;;;;18.33;16.23;;;;;;;4.53;36.04;94245.31;5067755;28;20223;-76
2022/03/21 11:34:37;;;;;;;17.10;15.40;;;;;;;4.69;35.70;94234.56;5067662;28;20256;-76
2022/03/21 11:37:03;;;;;;;21.83;17.23;;;;;;;4.56;36.86;94238.97;5067265;28;20201;-75
2022/03/21 11:39:30;;;;;;;19.83;17.93;;;;;;;4.46;36.21;94221.28;5066255;28;20481;-76
2022/03/21 11:41:57;;;;;;;20.10;17.97;;;;;;;4.70;37.28;94233.56;5067811;28;20253;-76